Main page
METAR-TAF:

METAR-TAF

Airports :

Oxford, England

Oxford Airport

latitude: 51-50-13N, longitude: 1-19-12W, elevation: 82 m

Current weather observation

The report was made 23 minutes ago, at 19:50 UTC
Wind 2 kt from the West/Southwest
Temperature -1°C
Humidity 100%
Pressure 1032 hPa
Visibility: 0500 m

METAR: EGTK 181950Z 24002KT 0500 R19/1200 NSC M01/M01 Q1032

Time: 20:13 (20:13 UTC)

Forecast

The report was made 3 hours and 17 minutes ago, at 16:56 UTC
Forecast valid from 18 at 18 UTC to 18 at 23 UTC
Wind 6 kt from the North
Visibility 10 km or more
Few clouds at a height of 4500 ft
Becoming
from 18 at 18 UTC to 18 at 20 UTC
Visibility: 3000 m
mist
Probability 40%
from 18 at 18 UTC to 18 at 23 UTC
Visibility: 0300 m
fog

TAF: EGTK 181656Z 1818/1823 35006KT 9999 FEW045 BECMG 1818/1820 3000 BR PROB40 1818/1823 0300 FG VV///

Weather observations and forecasts of more than 4000 airports (METAR and TAF reports).

The available stations are represented by yellow and red dots on the map.

Hover mouse over dot to see the name of the station.

Then click to see weather observations and forecasts.

To change the map : click on the green buttons with a black cross to zoom in, on the green button with a dash to zoom out, or on the green arrows for adjacent maps.


METAR-TAF: